createdAt,value
2018-11-22T12:17:42.024Z,76.27
2018-11-22T12:20:11.122Z,78.47
2018-11-22T12:22:41.065Z,77.33
2018-11-22T12:25:11.936Z,79.23
2018-11-22T12:27:40.781Z,77.33
2018-11-22T12:30:11.873Z,79.47
2018-11-22T12:32:45.787Z,79.53
2018-11-22T12:35:19.623Z,76.77
2018-11-22T12:37:53.403Z,76.83
2018-11-22T12:40:21.793Z,79.43
2018-11-22T12:42:50.241Z,79.67
2018-11-22T12:45:18.955Z,79.87
2018-11-22T12:47:47.356Z,85.77
2018-11-22T12:50:16.079Z,81.73
2018-11-22T12:52:44.455Z,77.63
2018-11-22T12:55:12.871Z,83.33
2018-11-22T12:57:41.268Z,84.00
2018-11-22T13:00:11.641Z,83.17
2018-11-22T13:02:40.531Z,79.30
2018-11-22T13:05:10.105Z,80.77
2018-11-22T13:07:38.496Z,83.97
2018-11-22T13:10:12.637Z,81.27
2018-11-22T13:12:42.922Z,83.50
2018-11-22T13:15:13.144Z,84.03
2018-11-22T13:17:41.915Z,80.90
2018-11-22T13:20:13.550Z,87.13
2018-11-22T13:22:41.956Z,84.97
2018-11-22T13:25:15.340Z,83.53
2018-11-22T13:27:43.810Z,86.03
2018-11-22T13:30:15.256Z,87.90
2018-11-22T13:32:44.834Z,82.50
2018-11-22T13:35:13.940Z,85.43
2018-11-22T13:37:43.600Z,86.63
2018-11-22T13:40:12.485Z,83.80
2018-11-22T13:42:42.260Z,93.43
2018-11-22T13:45:13.160Z,85.90
2018-11-22T13:47:42.709Z,90.93
2018-11-22T13:50:15.026Z,93.57
2018-11-22T13:52:44.418Z,86.87
2018-11-22T13:55:12.986Z,89.27
2018-11-22T13:57:41.705Z,91.00
2018-11-22T14:00:16.779Z,94.77
2018-11-22T14:02:45.997Z,93.87
2018-11-22T14:05:14.413Z,93.63
2018-11-22T14:07:42.785Z,95.27
2018-11-22T14:10:13.299Z,91.70
2018-11-22T14:12:42.249Z,93.60
2018-11-22T14:15:17.632Z,97.67
2018-11-22T14:17:46.818Z,93.57
2018-11-22T14:20:16.488Z,94.80
2018-11-22T14:22:45.253Z,94.30
2018-11-22T14:25:14.715Z,93.57
2018-11-22T14:27:43.782Z,95.10
2018-11-22T14:30:14.065Z,92.13
2018-11-22T14:32:43.215Z,96.13
2018-11-22T14:35:13.066Z,95.57
2018-11-22T14:37:42.321Z,102.30
2018-11-22T14:40:15.271Z,98.77
2018-11-22T14:42:44.218Z,98.50
2018-11-22T14:45:13.604Z,98.27
2018-11-22T14:47:42.722Z,97.53
2018-11-22T14:50:24.352Z,95.20
2018-11-22T14:52:55.329Z,98.47
2018-11-22T14:55:23.866Z,93.40
2018-11-22T14:57:52.068Z,95.80
2018-11-22T15:00:20.504Z,97.60
2018-11-22T15:02:48.894Z,97.37
2018-11-22T15:05:17.408Z,96.80
2018-11-22T15:07:45.964Z,101.90
2018-11-22T15:10:15.625Z,94.93
2018-11-22T15:12:45.410Z,94.50
2018-11-22T15:15:16.145Z,96.10
2018-11-22T15:17:44.945Z,95.40
2018-11-22T15:20:15.038Z,93.83
2018-11-22T15:22:44.283Z,94.90
2018-11-22T15:25:14.411Z,98.30
2018-11-22T15:27:43.477Z,89.47
2018-11-22T15:30:13.819Z,91.83
2018-11-22T15:32:42.225Z,93.57
2018-11-22T15:35:12.709Z,93.30
2018-11-22T15:37:41.293Z,93.23
2018-11-22T15:40:11.997Z,92.47
2018-11-22T15:42:40.373Z,90.43
2018-11-22T15:45:11.465Z,93.47
2018-11-22T15:47:39.837Z,89.33
2018-11-22T15:50:10.859Z,97.43
2018-11-22T15:52:39.425Z,92.60
2018-11-22T15:55:08.153Z,99.37
2018-11-22T15:57:37.146Z,85.53
2018-11-22T16:00:09.153Z,90.10
2018-11-22T16:02:37.512Z,93.60
2018-11-22T16:05:06.920Z,97.57
2018-11-22T16:07:35.322Z,95.70
2018-11-22T16:10:04.637Z,97.53
2018-11-22T16:12:33.054Z,98.37
2018-11-22T16:15:01.455Z,92.83
2018-11-22T16:17:29.832Z,96.87
2018-11-22T16:19:58.202Z,93.90
2018-11-22T16:22:26.579Z,95.17
2018-11-22T16:24:54.946Z,92.47
2018-11-22T16:27:23.307Z,94.47
2018-11-22T16:29:51.699Z,100.10
2018-11-22T16:32:20.171Z,98.13
2018-11-22T16:34:48.535Z,99.13
2018-11-22T16:37:19.960Z,99.70
2018-11-22T16:40:51.441Z,101.10
2018-11-22T16:43:19.837Z,97.57
2018-11-22T16:45:48.220Z,102.70
2018-11-22T16:48:16.570Z,105.33
2018-11-22T16:50:45.105Z,103.30
2018-11-22T16:53:13.414Z,110.00
2018-11-22T16:55:41.801Z,103.40
2018-11-22T16:58:10.269Z,104.70
2018-11-22T17:00:39.533Z,104.70
2018-11-22T17:03:09.851Z,103.63
2018-11-22T17:05:38.437Z,111.40
2018-11-22T17:08:07.409Z,105.30
2018-11-22T17:10:36.605Z,113.00
2018-11-22T17:13:05.715Z,111.47
2018-11-22T17:15:35.421Z,112.03
2018-11-22T17:18:04.509Z,109.03
2018-11-22T17:20:33.288Z,115.17
2018-11-22T17:23:02.232Z,117.03
2018-11-22T17:25:32.289Z,113.43
2018-11-22T17:28:02.173Z,115.40
2018-11-22T17:30:35.690Z,115.50
2018-11-22T17:33:04.507Z,112.13
2018-11-22T17:35:33.482Z,115.83
2018-11-22T17:38:03.091Z,107.27
2018-11-22T17:40:35.054Z,118.43
2018-11-22T17:43:03.453Z,116.63
2018-11-22T17:45:33.369Z,104.73
2018-11-22T17:48:02.048Z,106.47
2018-11-22T17:50:32.273Z,111.00
2018-11-22T17:53:01.246Z,109.33
2018-11-22T17:55:30.618Z,111.93
2018-11-22T17:57:59.102Z,114.50
2018-11-22T18:00:58.523Z,104.37
2018-11-22T18:03:26.932Z,112.50
2018-11-22T18:05:55.606Z,130.07
2018-11-22T18:08:24.024Z,146.43
2018-11-22T18:10:52.954Z,151.83
2018-11-22T18:13:21.313Z,146.10
2018-11-22T18:15:56.501Z,156.17
2018-11-22T18:18:25.592Z,156.97
2018-11-22T18:20:55.037Z,153.83
2018-11-22T18:23:24.579Z,166.40
2018-11-22T18:25:53.025Z,155.67
2018-11-22T18:28:21.455Z,158.70
2018-11-22T18:30:49.929Z,151.87
2018-11-22T18:33:18.313Z,158.50
2018-11-22T18:35:46.730Z,160.00
2018-11-22T18:38:15.150Z,151.30
2018-11-22T18:40:44.196Z,148.00
2018-11-22T18:43:12.602Z,153.07
2018-11-22T18:45:55.776Z,149.37
2018-11-22T18:48:24.137Z,145.50
2018-11-22T18:50:52.508Z,147.03
2018-11-22T18:53:20.891Z,147.90
2018-11-22T18:55:49.405Z,139.67
2018-11-22T18:58:17.766Z,140.17
2018-11-22T19:00:46.752Z,131.77
2018-11-22T19:03:16.872Z,123.30
2018-11-22T19:05:45.567Z,127.23
2018-11-22T19:08:13.946Z,144.30
2018-11-22T19:10:43.150Z,155.03
2018-11-22T19:13:12.918Z,142.67
2018-11-22T19:15:43.185Z,148.57
2018-11-22T19:18:12.194Z,144.63
2018-11-22T19:20:41.873Z,155.37
2018-11-22T19:23:12.435Z,147.33
2018-11-22T19:25:41.169Z,156.53
2018-11-22T19:28:10.771Z,144.97
2018-11-22T19:30:41.646Z,152.90
2018-11-22T19:33:11.961Z,157.37
2018-11-22T19:35:41.882Z,155.70
2018-11-22T19:38:10.238Z,167.23
2018-11-22T19:40:39.382Z,165.07
2018-11-22T19:43:09.001Z,150.37
2018-11-22T19:45:39.494Z,166.80
2018-11-22T19:48:08.166Z,166.87
2018-11-22T19:50:36.594Z,162.73
2018-11-22T19:53:06.705Z,162.73
2018-11-22T19:55:36.075Z,163.30
2018-11-22T19:58:05.994Z,153.17
2018-11-22T20:00:34.377Z,145.60
2018-11-22T20:03:03.972Z,173.37
2018-11-22T20:05:33.647Z,189.23
2018-11-22T20:08:03.755Z,176.90
2018-11-22T20:10:33.948Z,169.70
2018-11-22T20:13:02.317Z,176.07
2018-11-22T20:15:30.844Z,178.80
2018-11-22T20:18:00.103Z,172.90
2018-11-22T20:20:28.885Z,179.37
2018-11-22T20:22:57.858Z,182.67
2018-11-22T20:25:26.383Z,191.10
2018-11-22T20:27:55.838Z,168.53
2018-11-22T20:30:26.695Z,183.20
2018-11-22T20:32:55.086Z,173.40
2018-11-22T20:35:23.650Z,171.33
2018-11-22T20:37:52.542Z,164.70
2018-11-22T20:40:22.261Z,189.60
2018-11-22T20:42:50.666Z,186.77
2018-11-22T20:45:21.192Z,175.53
2018-11-22T20:47:51.056Z,166.73
2018-11-22T20:50:21.348Z,170.50
2018-11-22T20:52:49.752Z,193.57
2018-11-22T20:55:21.242Z,176.50
2018-11-22T20:57:51.206Z,175.67
2018-11-22T21:00:20.946Z,154.67
2018-11-22T21:02:49.436Z,159.43
2018-11-22T21:05:18.517Z,161.57
2018-11-22T21:07:47.224Z,149.60
2018-11-22T21:10:17.273Z,158.87
2018-11-22T21:12:46.751Z,152.60
2018-11-22T21:15:18.589Z,154.13
2018-11-22T21:17:47.807Z,142.33
2018-11-22T21:20:17.807Z,144.20
2018-11-22T21:22:46.180Z,140.60
2018-11-22T21:25:16.001Z,138.80
2018-11-22T21:27:44.373Z,143.73
2018-11-22T21:30:17.198Z,153.00
2018-11-22T21:32:46.340Z,135.57
2018-11-22T21:35:15.155Z,139.07
2018-11-22T21:37:44.201Z,120.93
2018-11-22T21:40:14.701Z,115.77
2018-11-22T21:42:42.130Z,177.53
2018-11-22T21:45:13.214Z,157.00
2018-11-22T21:47:42.068Z,140.07
2018-11-22T21:50:12.068Z,157.10
2018-11-22T21:52:40.422Z,151.80
2018-11-22T21:55:11.384Z,149.33
2018-11-22T21:57:41.089Z,135.80
2018-11-22T22:00:16.329Z,150.73
2018-11-22T22:02:45.935Z,140.97
2018-11-22T22:05:13.686Z,161.67
2018-11-22T22:07:42.042Z,158.47
2018-11-22T22:10:10.488Z,152.80
2018-11-22T22:12:39.676Z,135.13
2018-11-22T22:15:10.612Z,152.93
2018-11-22T22:17:39.590Z,157.27
2018-11-22T22:20:09.980Z,139.73
2018-11-22T22:22:38.448Z,135.60
2018-11-22T22:25:08.871Z,112.47
2018-11-22T22:27:37.556Z,198.40
2018-11-22T22:30:07.347Z,198.83
2018-11-22T22:32:35.754Z,166.17
2018-11-22T22:35:04.290Z,170.27
2018-11-22T22:37:32.749Z,175.13
2018-11-22T22:40:03.768Z,135.10
2018-11-22T22:42:29.503Z,147.83
2018-11-22T22:44:58.221Z,146.97
2018-11-22T22:47:26.593Z,156.77
2018-11-22T22:49:54.953Z,162.13
2018-11-22T22:52:23.481Z,156.00
2018-11-22T22:54:51.860Z,144.53
2018-11-22T22:57:20.197Z,145.57
2018-11-22T22:59:48.570Z,155.87
2018-11-22T23:02:17.030Z,122.87
2018-11-22T23:04:45.457Z,118.00
2018-11-22T23:07:14.865Z,108.83
2018-11-22T23:09:43.234Z,94.77
2018-11-22T23:12:11.642Z,168.47
2018-11-22T23:14:40.029Z,149.40
2018-11-22T23:17:09.370Z,151.17
2018-11-22T23:19:36.800Z,149.23
2018-11-22T23:22:05.562Z,141.43
2018-11-22T23:24:33.938Z,142.57
2018-11-22T23:27:02.327Z,140.90
2018-11-22T23:29:30.684Z,140.57
2018-11-22T23:31:59.065Z,143.17
2018-11-22T23:34:27.411Z,137.40
2018-11-22T23:36:55.766Z,145.93
2018-11-22T23:39:24.153Z,133.80
2018-11-22T23:41:52.972Z,141.07
2018-11-22T23:44:21.365Z,124.70
2018-11-22T23:46:49.726Z,148.53
2018-11-22T23:49:18.086Z,135.00
2018-11-22T23:51:52.394Z,111.50
2018-11-22T23:54:20.870Z,103.23
2018-11-22T23:56:49.641Z,95.50
2018-11-22T23:59:18.023Z,191.47
